Time;durP1;ratioP1;P1;durP2;ratioP2;P2;SDS_P1;SDS_P2;PMS_P1;PMS_P2;Temp;Humidity;BMP_temperature;BMP_pressure;BME280_temperature;BME280_humidity;BME280_pressure;Samples;Min_cycle;Max_cycle;Signal;HPM_P1;HPM_P2
2021/07/12 00:02:50;;;;;;;0.93;0.50;;;24.10;60.50;;;;;;6239683;28;20030;-71
2021/07/12 00:05:51;;;;;;;0.50;0.50;;;24.10;60.60;;;;;;6240111;28;20075;-70
2021/07/12 00:08:52;;;;;;;0.70;0.70;;;24.10;60.50;;;;;;6240404;28;20033;-69
2021/07/12 00:11:52;;;;;;;0.50;0.50;;;24.10;60.50;;;;;;6239685;28;20467;-70
2021/07/12 00:14:53;;;;;;;0.30;0.30;;;24.10;60.50;;;;;;6239915;28;20025;-70
2021/07/12 00:17:54;;;;;;;0.55;0.55;;;24.10;60.50;;;;;;6239527;28;20391;-70
2021/07/12 00:20:54;;;;;;;0.45;0.45;;;24.10;60.50;;;;;;6240117;28;20021;-70
2021/07/12 00:23:55;;;;;;;0.60;0.60;;;24.10;60.50;;;;;;6235863;28;20021;-70
2021/07/12 00:26:55;;;;;;;0.52;0.50;;;24.10;60.60;;;;;;6239549;28;20045;-70
2021/07/12 00:29:57;;;;;;;0.60;0.60;;;24.10;60.50;;;;;;6239775;28;20116;-70
2021/07/12 00:32:57;;;;;;;0.80;0.60;;;24.10;60.50;;;;;;6239698;28;20026;-70
2021/07/12 00:35:58;;;;;;;0.68;0.50;;;24.10;60.50;;;;;;6239655;28;20018;-70
2021/07/12 00:38:59;;;;;;;0.52;0.52;;;24.10;60.50;;;;;;6239861;28;20013;-71
2021/07/12 00:42:00;;;;;;;0.60;0.50;;;24.10;60.50;;;;;;6239554;28;20063;-70
2021/07/12 00:45:00;;;;;;;0.50;0.50;;;24.10;60.50;;;;;;6239633;28;20030;-70
2021/07/12 00:48:02;;;;;;;0.30;0.30;;;24.10;60.50;;;;;;6239395;28;20053;-70
2021/07/12 00:51:03;;;;;;;0.55;0.50;;;24.10;60.50;;;;;;6239744;28;20163;-70
2021/07/12 00:54:03;;;;;;;0.60;0.60;;;24.10;60.50;;;;;;6226543;28;20046;-70
2021/07/12 00:57:06;;;;;;;0.57;0.50;;;24.10;60.60;;;;;;6223395;28;20032;-70
2021/07/12 01:00:07;;;;;;;0.70;0.60;;;24.10;60.50;;;;;;6254438;28;20114;-70
2021/07/12 01:03:10;;;;;;;0.55;0.55;;;24.10;60.50;;;;;;6239092;28;20060;-70
2021/07/12 01:06:10;;;;;;;0.47;0.45;;;24.10;60.50;;;;;;6242026;28;20026;-70
2021/07/12 01:09:11;;;;;;;0.63;0.50;;;24.10;60.50;;;;;;6238858;28;20037;-70
2021/07/12 01:12:25;;;;;;;0.63;0.60;;;24.10;60.50;;;;;;6241990;28;20395;-70
2021/07/12 01:15:32;;;;;;;0.47;0.40;;;24.10;60.50;;;;;;6243631;28;20100;-70
2021/07/12 01:19:15;;;;;;;0.60;0.60;;;24.10;60.50;;;;;;6241405;28;20741;-70
2021/07/12 01:22:33;;;;;;;0.52;0.50;;;24.10;60.50;;;;;;6206676;28;20029;-70
2021/07/12 01:26:01;;;;;;;0.80;0.50;;;24.10;60.50;;;;;;6194703;28;20034;-70
2021/07/12 01:29:37;;;;;;;0.30;0.30;;;24.10;60.60;;;;;;6231458;28;20046;-70
2021/07/12 01:33:05;;;;;;;0.60;0.50;;;24.10;60.60;;;;;;6232294;28;20452;-70
2021/07/12 01:36:23;;;;;;;0.90;0.55;;;24.10;60.60;;;;;;6240838;28;20231;-70
2021/07/12 01:39:29;;;;;;;0.57;0.50;;;24.10;60.50;;;;;;6242775;28;20052;-70
2021/07/12 01:42:43;;;;;;;0.40;0.40;;;24.10;60.60;;;;;;6242654;28;20076;-70
2021/07/12 01:46:00;;;;;;;0.40;0.40;;;24.10;60.50;;;;;;6243875;28;20033;-70
2021/07/12 01:49:12;;;;;;;0.50;0.50;;;24.10;60.60;;;;;;6242911;28;20026;-70
2021/07/12 01:52:22;;;;;;;0.40;0.40;;;24.10;60.60;;;;;;6243005;28;20554;-71
2021/07/12 01:55:35;;;;;;;1.45;0.40;;;24.10;60.50;;;;;;6219127;28;20129;-70
2021/07/12 01:58:54;;;;;;;0.40;0.40;;;24.10;60.60;;;;;;6228670;28;20032;-70
2021/07/12 02:01:55;;;;;;;0.63;0.40;;;24.10;60.60;;;;;;6242862;28;20021;-70
2021/07/12 02:04:59;;;;;;;0.68;0.68;;;24.10;60.60;;;;;;6235061;28;20022;-70
2021/07/12 02:08:01;;;;;;;0.50;0.50;;;24.00;60.50;;;;;;6220140;28;20048;-70
2021/07/12 02:11:02;;;;;;;0.40;0.40;;;24.00;60.50;;;;;;6242814;28;20037;-70
2021/07/12 02:14:05;;;;;;;0.65;0.50;;;24.10;60.50;;;;;;6238705;28;20033;-70
2021/07/12 02:17:07;;;;;;;0.45;0.45;;;24.10;60.60;;;;;;6242069;28;20052;-70
2021/07/12 02:20:09;;;;;;;0.60;0.60;;;24.10;60.60;;;;;;6242016;28;20024;-70
2021/07/12 02:23:11;;;;;;;0.40;0.40;;;24.00;60.50;;;;;;6235778;28;20444;-70
2021/07/12 02:26:13;;;;;;;0.47;0.47;;;24.10;60.50;;;;;;6241667;28;20034;-70
2021/07/12 02:29:15;;;;;;;0.45;0.40;;;24.10;60.60;;;;;;6241439;28;20049;-71
2021/07/12 02:32:20;;;;;;;0.40;0.40;;;24.10;60.60;;;;;;6241706;28;20030;-70
2021/07/12 02:35:21;;;;;;;0.77;0.63;;;24.10;60.60;;;;;;6241450;28;20065;-70
2021/07/12 02:38:23;;;;;;;0.50;0.50;;;24.10;60.60;;;;;;6241393;28;20041;-70
2021/07/12 02:41:26;;;;;;;0.77;0.60;;;24.10;60.60;;;;;;6241639;28;20017;-70
2021/07/12 02:44:30;;;;;;;0.40;0.40;;;24.10;60.60;;;;;;6234659;28;20030;-70
2021/07/12 02:47:32;;;;;;;0.38;0.38;;;24.10;60.60;;;;;;6216889;28;20219;-69
2021/07/12 02:50:33;;;;;;;0.50;0.40;;;24.10;60.60;;;;;;6233988;28;20033;-70
2021/07/12 02:53:44;;;;;;;0.40;0.40;;;24.00;60.50;;;;;;6231975;28;20029;-70
2021/07/12 02:56:46;;;;;;;0.70;0.60;;;24.10;60.60;;;;;;6241195;28;20163;-70
2021/07/12 02:59:46;;;;;;;0.40;0.40;;;24.10;60.60;;;;;;6241044;28;20059;-70
2021/07/12 03:02:47;;;;;;;0.30;0.30;;;24.10;60.60;;;;;;6241196;28;20033;-70
2021/07/12 03:05:53;;;;;;;0.30;0.30;;;24.10;60.60;;;;;;6223762;28;20089;-70
2021/07/12 03:09:02;;;;;;;0.47;0.47;;;24.10;60.60;;;;;;6215024;28;20034;-70
2021/07/12 03:12:09;;;;;;;0.40;0.40;;;24.10;60.60;;;;;;6238555;28;20032;-70
2021/07/12 03:15:13;;;;;;;0.40;0.40;;;24.10;60.60;;;;;;6240579;28;20401;-70
2021/07/12 03:18:28;;;;;;;0.47;0.40;;;24.00;60.50;;;;;;6240675;28;20462;-70
2021/07/12 03:21:30;;;;;;;;;;;24.10;60.60;;;;;;6240761;28;20484;-70
2021/07/12 03:24:31;;;;;;;0.40;0.40;;;24.10;60.50;;;;;;6222726;28;19906;-70
2021/07/12 03:27:33;;;;;;;0.40;0.40;;;24.00;60.60;;;;;;6239395;28;20451;-70
2021/07/12 03:30:37;;;;;;;0.50;0.50;;;24.10;60.60;;;;;;6240153;28;20603;-70
2021/07/12 03:33:39;;;;;;;0.40;0.40;;;24.00;60.50;;;;;;6239810;28;20033;-70
2021/07/12 03:36:43;;;;;;;0.40;0.40;;;24.00;60.50;;;;;;6240003;28;20018;-70
2021/07/12 03:39:43;;;;;;;0.77;0.50;;;24.10;60.60;;;;;;6255565;28;20076;-69
2021/07/12 03:42:45;;;;;;;0.43;0.40;;;24.10;60.60;;;;;;6239675;28;20029;-70
2021/07/12 03:45:57;;;;;;;0.43;0.40;;;24.00;60.50;;;;;;6240097;28;20029;-70
2021/07/12 03:48:57;;;;;;;0.40;0.40;;;24.00;60.50;;;;;;6227651;28;20401;-70
2021/07/12 03:51:59;;;;;;;0.40;0.40;;;24.00;60.50;;;;;;6230990;28;20120;-70
2021/07/12 03:55:00;;;;;;;0.30;0.30;;;24.00;60.50;;;;;;6218943;28;20030;-70
2021/07/12 03:58:03;;;;;;;0.40;0.40;;;24.10;60.60;;;;;;6224277;28;20025;-70
2021/07/12 04:01:04;;;;;;;0.40;0.40;;;24.00;60.50;;;;;;6222057;28;20101;-70
2021/07/12 04:04:05;;;;;;;0.40;0.40;;;24.10;60.60;;;;;;6221886;28;20026;-70
2021/07/12 04:07:05;;;;;;;0.45;0.40;;;24.00;60.50;;;;;;6229553;28;20554;-70
2021/07/12 04:10:11;;;;;;;0.50;0.50;;;24.00;60.50;;;;;;6240351;28;20129;-70
2021/07/12 04:13:13;;;;;;;0.47;0.45;;;24.10;60.60;;;;;;6239547;28;20138;-70
2021/07/12 04:16:14;;;;;;;0.40;0.35;;;24.10;60.60;;;;;;6228186;28;20034;-70
2021/07/12 04:19:14;;;;;;;0.60;0.60;;;24.00;60.50;;;;;;6239642;28;20096;-70
2021/07/12 04:22:14;;;;;;;0.43;0.43;;;24.10;60.60;;;;;;6239625;28;20040;-70
2021/07/12 04:25:15;;;;;;;0.93;0.47;;;24.00;60.40;;;;;;6215786;28;20053;-70
2021/07/12 04:28:16;;;;;;;0.40;0.40;;;24.10;60.60;;;;;;6233610;28;20111;-70
2021/07/12 04:31:16;;;;;;;0.32;0.30;;;24.10;60.50;;;;;;6235629;28;20091;-70
2021/07/12 04:34:17;;;;;;;0.47;0.45;;;24.00;60.50;;;;;;6239279;28;20025;-70
2021/07/12 04:37:17;;;;;;;0.40;0.40;;;24.00;60.50;;;;;;6241596;28;20030;-70
2021/07/12 04:40:18;;;;;;;0.38;0.38;;;24.10;60.50;;;;;;6240372;28;20051;-69
2021/07/12 04:43:18;;;;;;;0.40;0.40;;;24.00;60.40;;;;;;6239509;28;20429;-70
2021/07/12 04:46:19;;;;;;;0.30;0.30;;;24.00;60.50;;;;;;6242780;28;20108;-70
2021/07/12 04:49:20;;;;;;;0.40;0.40;;;24.10;60.50;;;;;;6243871;28;20033;-70
2021/07/12 04:52:20;;;;;;;0.50;0.50;;;24.10;60.60;;;;;;6243760;28;20021;-70
2021/07/12 04:55:21;;;;;;;0.40;0.40;;;24.00;60.40;;;;;;6220601;28;20060;-70
2021/07/12 04:58:21;;;;;;;0.43;0.43;;;24.10;60.60;;;;;;6234757;28;20036;-70
2021/07/12 05:01:23;;;;;;;0.40;0.40;;;24.00;60.50;;;;;;6237396;28;20038;-70
2021/07/12 05:04:24;;;;;;;0.30;0.30;;;24.00;60.50;;;;;;6242307;28;20029;-70
2021/07/12 05:07:25;;;;;;;0.40;0.40;;;24.00;60.40;;;;;;6243543;28;20122;-70
2021/07/12 05:10:26;;;;;;;0.40;0.40;;;24.00;60.50;;;;;;6244040;28;20044;-70
2021/07/12 05:13:29;;;;;;;0.45;0.40;;;24.00;60.40;;;;;;6243523;28;20112;-70
2021/07/12 05:16:30;;;;;;;0.40;0.40;;;24.10;60.60;;;;;;6243912;28;20100;-70
2021/07/12 05:19:31;;;;;;;0.40;0.40;;;24.00;60.50;;;;;;6243486;28;20078;-70
2021/07/12 05:22:32;;;;;;;0.32;0.32;;;24.00;60.50;;;;;;6241638;28;20121;-70
2021/07/12 05:25:32;;;;;;;0.45;0.45;;;24.00;61.30;;;;;;6218832;28;20034;-70
2021/07/12 05:28:34;;;;;;;0.40;0.40;;;24.00;60.50;;;;;;6227773;28;20060;-70
2021/07/12 05:31:34;;;;;;;0.30;0.30;;;24.00;60.50;;;;;;6241694;28;20247;-70
2021/07/12 05:34:35;;;;;;;0.40;0.40;;;24.00;60.40;;;;;;6242591;28;20053;-70
2021/07/12 05:37:37;;;;;;;0.30;0.30;;;24.10;60.60;;;;;;6243022;28;20342;-70
2021/07/12 05:40:38;;;;;;;0.45;0.45;;;24.00;60.40;;;;;;6243022;28;20029;-70
2021/07/12 05:43:39;;;;;;;0.40;0.40;;;24.00;60.50;;;;;;6257964;28;20035;-70
2021/07/12 05:46:40;;;;;;;0.45;0.45;;;24.10;60.60;;;;;;6242358;28;20847;-70
2021/07/12 05:49:40;;;;;;;0.40;0.35;;;24.10;60.60;;;;;;6242573;28;20033;-70
2021/07/12 05:52:41;;;;;;;0.50;0.50;;;24.10;60.60;;;;;;6256052;28;20025;-70
2021/07/12 05:55:42;;;;;;;0.28;0.28;;;24.10;60.60;;;;;;6240898;28;20029;-70
2021/07/12 05:58:42;;;;;;;0.30;0.30;;;24.10;60.60;;;;;;6241563;28;20051;-70
2021/07/12 06:01:43;;;;;;;0.40;0.40;;;24.10;60.50;;;;;;6214066;28;20035;-70
2021/07/12 06:04:44;;;;;;;0.70;0.55;;;24.10;60.60;;;;;;6209470;28;20076;-70
2021/07/12 06:07:44;;;;;;;0.30;0.30;;;24.00;60.50;;;;;;6219839;28;20203;-70
2021/07/12 06:10:45;;;;;;;0.40;0.40;;;24.00;60.50;;;;;;6238314;28;20095;-70
2021/07/12 06:13:46;;;;;;;0.40;0.40;;;24.10;60.50;;;;;;6243447;28;20462;-70
2021/07/12 06:16:46;;;;;;;0.50;0.50;;;24.00;60.50;;;;;;6246887;28;20211;-70
2021/07/12 06:19:47;;;;;;;0.30;0.30;;;24.00;60.50;;;;;;6243930;28;20040;-70
2021/07/12 06:22:49;;;;;;;0.38;0.38;;;24.00;60.50;;;;;;6240574;28;20026;-69
2021/07/12 06:25:49;;;;;;;0.50;0.40;;;24.10;60.60;;;;;;6236262;28;20037;-70
2021/07/12 06:28:50;;;;;;;0.50;0.40;;;24.00;60.50;;;;;;6243585;28;20077;-70
2021/07/12 06:31:51;;;;;;;0.40;0.40;;;24.00;60.50;;;;;;6243700;28;20029;-70
2021/07/12 06:34:51;;;;;;;0.45;0.45;;;24.00;60.50;;;;;;6243671;28;20090;-71
2021/07/12 06:37:52;;;;;;;0.40;0.40;;;24.00;60.40;;;;;;6245906;28;20507;-70
2021/07/12 06:40:52;;;;;;;0.40;0.40;;;24.10;60.60;;;;;;6243663;28;20044;-70
2021/07/12 06:43:55;;;;;;;0.30;0.30;;;24.00;60.50;;;;;;6243303;28;20037;-70
2021/07/12 06:46:55;;;;;;;0.40;0.40;;;24.00;60.50;;;;;;6243238;28;20037;-70
2021/07/12 06:49:56;;;;;;;0.47;0.40;;;24.00;60.50;;;;;;6224473;28;20052;-70
2021/07/12 06:52:56;;;;;;;0.30;0.30;;;24.00;60.50;;;;;;6230472;28;20443;-70
2021/07/12 06:55:57;;;;;;;0.30;0.30;;;24.00;60.50;;;;;;6223309;28;20026;-70
2021/07/12 06:58:57;;;;;;;1.90;1.65;;;24.00;60.50;;;;;;6217961;28;20029;-69
2021/07/12 07:01:58;;;;;;;6.47;2.53;;;24.00;61.40;;;;;;6228018;28;20038;-70
2021/07/12 07:04:58;;;;;;;5.03;3.10;;;24.00;61.80;;;;;;6223522;28;20053;-70
2021/07/12 07:07:59;;;;;;;3.65;2.47;;;24.00;62.40;;;;;;6223533;28;20076;-70
2021/07/12 07:11:00;;;;;;;5.22;2.50;;;24.00;62.10;;;;;;6219288;28;21529;-70
2021/07/12 07:14:01;;;;;;;4.65;2.75;;;24.00;62.80;;;;;;6217393;28;20018;-70
2021/07/12 07:17:01;;;;;;;3.95;2.78;;;24.00;63.30;;;;;;6234900;28;20396;-70
2021/07/12 07:20:04;;;;;;;5.53;2.67;;;24.00;63.40;;;;;;6221854;28;20030;-69
2021/07/12 07:23:04;;;;;;;4.18;2.75;;;24.00;63.90;;;;;;6225615;28;20034;-70
2021/07/12 07:26:07;;;;;;;4.38;3.20;;;24.00;63.20;;;;;;6225477;28;20292;-70
2021/07/12 07:29:08;;;;;;;4.72;2.95;;;24.00;63.30;;;;;;6241328;28;20180;-70
2021/07/12 07:32:09;;;;;;;6.70;3.30;;;24.00;63.20;;;;;;6240115;28;20076;-70
2021/07/12 07:35:10;;;;;;;4.20;3.47;;;24.00;63.70;;;;;;6240382;28;20091;-69
2021/07/12 07:38:10;;;;;;;5.03;3.83;;;24.00;63.90;;;;;;6227076;28;20164;-70
2021/07/12 07:41:11;;;;;;;4.85;3.30;;;24.00;63.50;;;;;;6228206;28;20024;-70
2021/07/12 07:44:14;;;;;;;7.22;3.50;;;24.00;63.90;;;;;;6237896;28;20021;-70
2021/07/12 07:47:15;;;;;;;7.97;3.53;;;24.00;63.90;;;;;;6231773;28;20033;-70
2021/07/12 07:50:17;;;;;;;5.85;2.92;;;24.00;63.70;;;;;;6225421;28;20073;-70
2021/07/12 07:53:17;;;;;;;5.60;2.97;;;24.00;63.70;;;;;;6233086;28;20026;-70
2021/07/12 07:56:18;;;;;;;5.10;3.33;;;24.00;63.10;;;;;;6237405;28;20071;-70
2021/07/12 07:59:18;;;;;;;4.25;2.60;;;24.00;63.10;;;;;;6240747;28;20036;-70
2021/07/12 08:02:19;;;;;;;3.90;2.75;;;24.00;63.10;;;;;;6240109;28;20108;-70
2021/07/12 08:05:20;;;;;;;2.60;2.30;;;24.00;62.90;;;;;;6207591;28;20026;-70
2021/07/12 08:08:21;;;;;;;2.88;2.58;;;24.00;62.70;;;;;;6214980;28;20037;-70
2021/07/12 08:11:21;;;;;;;3.53;2.60;;;24.00;62.80;;;;;;6217839;28;20037;-70
2021/07/12 08:14:22;;;;;;;5.38;2.47;;;24.00;62.90;;;;;;6240120;28;20535;-70
2021/07/12 08:17:22;;;;;;;3.30;2.97;;;24.00;62.90;;;;;;6240610;28;20125;-70
2021/07/12 08:20:23;;;;;;;6.47;3.20;;;24.00;63.30;;;;;;6241694;28;20065;-70
2021/07/12 08:23:23;;;;;;;6.95;2.95;;;24.00;63.10;;;;;;6234541;28;20306;-70
2021/07/12 08:26:24;;;;;;;3.58;2.33;;;24.00;62.60;;;;;;6221371;28;20499;-70
2021/07/12 08:29:24;;;;;;;2.85;1.85;;;24.00;62.20;;;;;;6242640;28;20056;-70
2021/07/12 08:32:26;;;;;;;2.75;2.30;;;24.00;62.00;;;;;;6246039;28;20428;-70
2021/07/12 08:35:26;;;;;;;2.55;2.30;;;24.00;62.10;;;;;;6246272;28;20503;-70
2021/07/12 08:38:27;;;;;;;5.35;2.90;;;24.00;62.10;;;;;;6236535;28;20109;-70
2021/07/12 08:41:28;;;;;;;5.82;2.50;;;24.10;62.10;;;;;;6220709;28;20022;-70
2021/07/12 08:44:29;;;;;;;2.53;2.33;;;24.10;62.10;;;;;;6227112;28;20028;-70
2021/07/12 08:47:30;;;;;;;3.33;2.20;;;24.00;61.90;;;;;;6226871;28;20028;-70
2021/07/12 08:50:31;;;;;;;3.60;2.30;;;24.00;61.80;;;;;;6246075;28;20349;-70
2021/07/12 08:53:32;;;;;;;2.33;2.10;;;24.00;61.80;;;;;;6257709;28;20056;-70
2021/07/12 08:56:32;;;;;;;2.85;2.50;;;24.00;61.70;;;;;;6220809;28;20034;-70
2021/07/12 08:59:39;;;;;;;2.70;2.28;;;24.00;62.50;;;;;;6235572;28;20434;-70
2021/07/12 09:02:40;;;;;;;4.00;2.20;;;24.00;61.60;;;;;;6234121;28;20473;-70
2021/07/12 09:06:01;;;;;;;2.63;1.95;;;24.00;62.50;;;;;;6223096;28;20026;-71
2021/07/12 09:09:05;;;;;;;2.33;2.03;;;24.10;61.60;;;;;;6220376;28;20268;-70
2021/07/12 09:12:13;;;;;;;3.38;1.80;;;24.10;61.40;;;;;;6237283;28;20389;-71
2021/07/12 09:15:18;;;;;;;3.13;1.98;;;24.20;61.40;;;;;;6237266;28;20022;-70
2021/07/12 09:18:19;;;;;;;2.42;1.60;;;24.20;61.40;;;;;;6226610;28;20032;-70
2021/07/12 09:21:20;;;;;;;1.75;1.58;;;24.20;61.30;;;;;;6244807;28;20087;-70
2021/07/12 09:24:25;;;;;;;2.42;1.85;;;24.20;61.20;;;;;;6244613;28;20030;-70
2021/07/12 09:27:28;;;;;;;2.35;1.70;;;24.20;61.20;;;;;;6236686;28;20058;-70
2021/07/12 09:30:32;;;;;;;2.10;1.52;;;24.20;61.20;;;;;;6244036;28;20061;-71
2021/07/12 09:33:48;;;;;;;1.50;1.40;;;24.20;61.20;;;;;;6243147;28;20022;-70
2021/07/12 09:36:50;;;;;;;1.58;1.48;;;24.20;61.20;;;;;;6232465;28;20022;-70
2021/07/12 09:39:52;;;;;;;1.80;1.70;;;24.20;61.30;;;;;;6233980;28;20026;-70
2021/07/12 09:42:52;;;;;;;4.85;1.83;;;24.20;61.20;;;;;;6244948;28;20502;-70
2021/07/12 09:45:53;;;;;;;2.25;1.80;;;24.20;61.40;;;;;;6227583;28;20113;-70
2021/07/12 09:49:10;;;;;;;1.83;1.70;;;24.20;61.40;;;;;;6225050;28;20106;-70
2021/07/12 09:52:16;;;;;;;2.33;1.67;;;24.20;61.40;;;;;;6225886;28;20056;-70
2021/07/12 09:55:22;;;;;;;2.03;1.52;;;24.20;61.40;;;;;;6235488;28;20033;-70
2021/07/12 09:58:27;;;;;;;1.75;1.50;;;24.20;61.40;;;;;;6244522;28;20026;-70
2021/07/12 10:01:29;;;;;;;2.03;1.48;;;24.20;61.50;;;;;;6244047;28;20036;-70
2021/07/12 10:04:29;;;;;;;1.70;1.60;;;24.20;61.50;;;;;;6244132;28;20380;-70
2021/07/12 10:07:30;;;;;;;2.08;1.63;;;24.20;61.50;;;;;;6244321;28;20029;-70
2021/07/12 10:10:31;;;;;;;2.78;1.50;;;24.20;61.50;;;;;;6244155;28;20029;-70
2021/07/12 10:13:32;;;;;;;1.73;1.60;;;24.10;61.40;;;;;;6244346;28;20096;-70
2021/07/12 10:16:32;;;;;;;2.65;1.75;;;24.10;61.40;;;;;;6243868;28;20033;-70
2021/07/12 10:19:33;;;;;;;1.40;1.30;;;24.10;61.30;;;;;;6243776;28;20057;-70
2021/07/12 10:22:36;;;;;;;1.80;1.50;;;24.10;61.30;;;;;;6242614;28;20104;-70
2021/07/12 10:25:37;;;;;;;2.33;1.70;;;24.10;61.30;;;;;;6233802;28;20723;-70
2021/07/12 10:28:40;;;;;;;1.50;1.40;;;24.10;61.30;;;;;;6244484;28;20463;-70
2021/07/12 10:32:17;;;;;;;1.77;1.40;;;24.10;61.30;;;;;;6243536;28;20030;-70
2021/07/12 10:35:38;;;;;;;4.70;1.60;;;24.10;61.30;;;;;;6241420;28;20075;-70
2021/07/12 10:38:42;;;;;;;2.75;1.58;;;24.10;61.20;;;;;;6243731;28;20067;-70
2021/07/12 10:41:48;;;;;;;4.15;1.70;;;24.10;61.20;;;;;;6246085;28;20025;-70
2021/07/12 10:45:08;;;;;;;1.45;1.35;;;24.10;61.20;;;;;;6245590;28;20033;-70
2021/07/12 10:48:12;;;;;;;1.67;1.38;;;24.10;61.20;;;;;;6195049;28;20526;-70
2021/07/12 10:51:28;;;;;;;1.80;1.48;;;24.20;61.20;;;;;;6226132;28;20048;-70
2021/07/12 10:54:28;;;;;;;1.83;1.25;;;24.10;61.20;;;;;;6228026;28;20069;-70
2021/07/12 10:57:30;;;;;;;1.40;1.20;;;24.10;61.20;;;;;;6243224;28;20415;-70
2021/07/12 11:00:37;;;;;;;1.48;1.30;;;24.10;61.20;;;;;;6242935;28;20064;-70
2021/07/12 11:03:49;;;;;;;1.20;1.10;;;24.10;61.20;;;;;;6258224;28;20079;-70
2021/07/12 11:06:54;;;;;;;1.50;1.40;;;24.10;61.20;;;;;;6224143;28;20025;-70
2021/07/12 11:09:56;;;;;;;1.13;1.03;;;24.10;61.20;;;;;;6219028;28;20038;-70
2021/07/12 11:13:05;;;;;;;2.05;1.45;;;24.10;61.20;;;;;;6242970;28;20268;-70
2021/07/12 11:16:16;;;;;;;1.67;1.17;;;24.10;61.10;;;;;;6242371;28;20030;-70
2021/07/12 11:19:18;;;;;;;1.77;1.40;;;24.10;61.20;;;;;;6242852;28;20029;-70
2021/07/12 11:22:23;;;;;;;2.63;1.33;;;24.10;61.10;;;;;;6242711;28;20106;-70
2021/07/12 11:25:43;;;;;;;1.58;1.40;;;24.10;61.10;;;;;;6198673;28;20030;-70
2021/07/12 11:28:44;;;;;;;1.13;1.02;;;24.10;61.20;;;;;;6242463;28;20053;-70
2021/07/12 11:31:52;;;;;;;1.05;0.95;;;24.10;61.10;;;;;;6242835;28;20041;-70
2021/07/12 11:34:54;;;;;;;2.75;1.00;;;24.10;61.10;;;;;;6242426;28;20038;-70
2021/07/12 11:38:03;;;;;;;1.15;1.05;;;24.10;61.10;;;;;;6242559;28;20037;-71
2021/07/12 11:41:06;;;;;;;1.35;1.25;;;24.10;61.20;;;;;;6224452;28;20092;-70
2021/07/12 11:44:14;;;;;;;2.58;1.20;;;24.10;61.10;;;;;;6242487;28;20147;-70
2021/07/12 11:47:21;;;;;;;1.10;1.00;;;24.10;61.10;;;;;;6241345;28;20025;-70
2021/07/12 11:50:24;;;;;;;1.98;1.40;;;24.10;61.10;;;;;;6242237;28;20033;-71
2021/07/12 11:53:25;;;;;;;1.27;1.17;;;24.10;61.10;;;;;;6234039;28;20097;-70
2021/07/12 11:56:25;;;;;;;1.25;1.10;;;24.10;61.10;;;;;;6224084;28;20041;-70
2021/07/12 11:59:37;;;;;;;1.33;1.00;;;24.10;61.10;;;;;;6241832;28;20048;-70
2021/07/12 12:02:39;;;;;;;1.20;1.10;;;24.10;61.10;;;;;;6241889;28;20033;-70
2021/07/12 12:05:45;;;;;;;1.10;1.00;;;24.10;61.10;;;;;;6241777;28;20037;-70
2021/07/12 12:09:04;;;;;;;1.13;1.02;;;24.10;61.10;;;;;;6241548;28;20087;-70
2021/07/12 12:12:06;;;;;;;1.13;1.02;;;24.10;61.10;;;;;;6241585;28;20034;-70
2021/07/12 12:15:17;;;;;;;0.82;0.82;;;24.10;61.10;;;;;;6241915;28;20080;-70
2021/07/12 12:18:25;;;;;;;1.23;1.13;;;24.10;61.10;;;;;;6242066;28;20026;-70
2021/07/12 12:21:26;;;;;;;0.90;0.90;;;24.10;61.10;;;;;;6241911;28;20112;-70
2021/07/12 12:24:27;;;;;;;1.30;1.02;;;24.10;61.10;;;;;;6225144;28;20030;-70
2021/07/12 12:27:29;;;;;;;1.35;1.10;;;24.10;61.00;;;;;;6227567;28;20060;-70
2021/07/12 12:30:30;;;;;;;1.17;1.08;;;24.10;61.10;;;;;;6241569;28;20477;-71
2021/07/12 12:33:34;;;;;;;1.48;1.00;;;24.10;61.20;;;;;;6239689;28;20029;-71
2021/07/12 12:36:42;;;;;;;1.07;0.97;;;24.10;61.00;;;;;;6218817;28;20024;-70
2021/07/12 12:39:42;;;;;;;1.20;1.10;;;24.10;61.00;;;;;;6241774;28;20084;-71
2021/07/12 12:42:44;;;;;;;1.50;1.10;;;24.10;61.00;;;;;;6241435;28;20446;-70
2021/07/12 12:45:48;;;;;;;0.93;0.90;;;24.10;61.00;;;;;;6241566;28;20199;-70
2021/07/12 12:48:48;;;;;;;1.13;1.02;;;24.10;61.00;;;;;;6241449;28;20152;-70
2021/07/12 12:51:54;;;;;;;1.08;0.98;;;24.10;61.00;;;;;;6241303;28;20415;-70
2021/07/12 12:55:11;;;;;;;1.15;1.05;;;24.10;61.10;;;;;;6224137;28;20030;-70
2021/07/12 12:58:12;;;;;;;1.23;1.00;;;24.10;61.90;;;;;;6228885;28;20104;-70
2021/07/12 13:01:12;;;;;;;1.30;1.10;;;24.10;61.00;;;;;;6241372;28;20040;-70
2021/07/12 13:04:20;;;;;;;1.13;0.85;;;24.10;61.90;;;;;;6241410;28;20080;-70
2021/07/12 13:07:27;;;;;;;1.00;0.90;;;24.10;61.00;;;;;;6242650;28;20499;-70
2021/07/12 13:10:29;;;;;;;0.90;0.85;;;24.10;61.00;;;;;;6245897;28;20116;-70
2021/07/12 13:13:31;;;;;;;1.10;1.00;;;24.10;61.00;;;;;;6245880;28;20107;-70
2021/07/12 13:16:36;;;;;;;1.10;1.00;;;24.10;61.00;;;;;;6245387;28;20029;-70
2021/07/12 13:19:38;;;;;;;1.60;0.90;;;24.10;61.00;;;;;;6261192;28;20091;-71
2021/07/12 13:22:49;;;;;;;1.08;0.93;;;24.10;62.00;;;;;;6242906;28;20302;-70
2021/07/12 13:25:50;;;;;;;0.95;0.85;;;24.10;61.00;;;;;;6220828;28;20033;-70
2021/07/12 13:28:50;;;;;;;0.93;0.82;;;24.10;61.00;;;;;;6233799;28;20057;-70
2021/07/12 13:31:51;;;;;;;1.27;1.17;;;24.10;61.10;;;;;;6245125;28;20041;-70
2021/07/12 13:35:04;;;;;;;1.00;0.90;;;24.10;61.00;;;;;;6245515;28;20033;-71
2021/07/12 13:38:07;;;;;;;0.65;0.65;;;24.10;61.00;;;;;;6245199;28;20035;-70
2021/07/12 13:41:08;;;;;;;2.03;0.95;;;24.10;61.00;;;;;;6245054;28;20103;-70
2021/07/12 13:44:08;;;;;;;1.10;1.00;;;24.10;61.00;;;;;;6244584;28;20045;-70
2021/07/12 13:47:11;;;;;;;1.20;0.82;;;24.10;61.10;;;;;;6245262;28;20037;-70
2021/07/12 13:50:17;;;;;;;1.10;1.00;;;24.10;61.00;;;;;;6244883;28;20029;-70
2021/07/12 13:53:18;;;;;;;1.20;1.10;;;24.10;61.00;;;;;;6243003;28;20432;-69
2021/07/12 13:56:18;;;;;;;0.80;0.75;;;24.10;61.00;;;;;;6243380;28;20025;-70
2021/07/12 13:59:19;;;;;;;0.95;0.90;;;24.10;61.00;;;;;;6244659;28;20022;-70
2021/07/12 14:02:20;;;;;;;0.85;0.85;;;24.10;61.00;;;;;;6244593;28;20057;-71
2021/07/12 14:05:22;;;;;;;0.90;0.90;;;24.10;61.00;;;;;;6244239;28;20102;-70
2021/07/12 14:08:22;;;;;;;1.10;1.00;;;24.10;61.00;;;;;;6244615;28;20029;-71
2021/07/12 14:11:23;;;;;;;1.23;1.00;;;24.10;61.00;;;;;;6244108;28;20057;-70
2021/07/12 14:14:23;;;;;;;1.27;1.17;;;24.10;61.00;;;;;;6244094;28;20420;-70
2021/07/12 14:17:24;;;;;;;1.48;1.15;;;24.10;61.00;;;;;;6243334;28;20431;-70
2021/07/12 14:20:24;;;;;;;2.20;1.35;;;24.10;61.00;;;;;;6244218;28;20033;-70
2021/07/12 14:23:25;;;;;;;1.20;1.10;;;24.10;61.00;;;;;;6236900;28;20488;-70
2021/07/12 14:26:26;;;;;;;0.88;0.88;;;24.10;61.00;;;;;;6244650;28;20037;-70
2021/07/12 14:29:26;;;;;;;1.15;1.02;;;24.10;61.00;;;;;;6244776;28;20111;-70
2021/07/12 14:32:27;;;;;;;1.50;1.20;;;24.10;61.00;;;;;;6244830;28;20060;-70
2021/07/12 14:35:28;;;;;;;1.10;1.00;;;24.10;61.00;;;;;;6244374;28;20025;-70
2021/07/12 14:38:28;;;;;;;2.17;1.20;;;24.10;61.00;;;;;;6243439;28;20411;-70
2021/07/12 14:41:29;;;;;;;1.73;1.00;;;24.10;61.00;;;;;;6258647;28;20034;-70
2021/07/12 14:44:32;;;;;;;1.55;1.10;;;24.10;61.00;;;;;;6243898;28;20497;-70
2021/07/12 14:47:33;;;;;;;1.48;1.00;;;24.10;61.90;;;;;;6243815;28;20059;-70
2021/07/12 14:50:33;;;;;;;1.00;0.90;;;24.10;61.00;;;;;;6243973;28;20818;-70
2021/07/12 14:53:34;;;;;;;1.00;0.90;;;24.10;61.00;;;;;;6234970;28;20022;-70
2021/07/12 14:56:35;;;;;;;1.10;0.90;;;24.10;61.00;;;;;;6241762;28;20439;-70
2021/07/12 14:59:35;;;;;;;1.23;1.00;;;24.10;61.00;;;;;;6208400;28;20111;-70
2021/07/12 15:02:36;;;;;;;1.48;1.20;;;24.10;61.00;;;;;;6216551;28;20079;-70
2021/07/12 15:05:37;;;;;;;1.17;0.93;;;24.10;61.00;;;;;;6218547;28;20034;-70
2021/07/12 15:08:37;;;;;;;1.35;0.85;;;24.10;61.00;;;;;;6217580;28;20469;-70
2021/07/12 15:11:38;;;;;;;1.30;1.20;;;24.10;61.00;;;;;;6225282;28;20472;-70
2021/07/12 15:14:38;;;;;;;1.75;1.08;;;24.10;61.00;;;;;;6201535;28;20032;-70
2021/07/12 15:17:39;;;;;;;0.93;0.82;;;24.10;61.00;;;;;;6215646;28;20034;-70
2021/07/12 15:20:39;;;;;;;1.13;1.00;;;24.10;61.00;;;;;;6221968;28;20097;-70
2021/07/12 15:23:40;;;;;;;1.10;1.00;;;24.10;61.00;;;;;;6235340;28;20053;-70
2021/07/12 15:26:41;;;;;;;1.83;0.98;;;24.10;61.00;;;;;;6220507;28;20101;-70
2021/07/12 15:29:41;;;;;;;1.27;1.00;;;24.10;61.00;;;;;;6218056;28;20429;-69
2021/07/12 15:32:42;;;;;;;1.17;1.08;;;24.10;61.00;;;;;;6216721;28;20032;-70
2021/07/12 15:35:43;;;;;;;0.80;0.80;;;24.10;61.00;;;;;;6221270;28;20033;-70
2021/07/12 15:38:43;;;;;;;1.30;1.00;;;24.10;61.00;;;;;;6216534;28;20125;-70
2021/07/12 15:41:44;;;;;;;0.70;0.70;;;24.10;61.00;;;;;;6220225;28;20065;-70
2021/07/12 15:44:45;;;;;;;0.85;0.80;;;24.10;61.00;;;;;;6219434;28;20037;-70
2021/07/12 15:47:46;;;;;;;4.28;1.20;;;24.10;61.00;;;;;;6228462;28;20473;-70
2021/07/12 15:50:47;;;;;;;1.33;1.08;;;24.10;61.00;;;;;;6219118;28;20030;-70
2021/07/12 15:53:47;;;;;;;0.95;0.90;;;24.10;61.00;;;;;;6216608;28;20101;-70
2021/07/12 15:56:48;;;;;;;1.45;1.20;;;24.10;61.00;;;;;;6219052;28;20447;-70